sensor_id;sensor_type;location;lat;lon;timestamp;P1;P2;P0
77538;PMS7003;67783;51.656;16.106;2023-06-14T00:00:19;3;2;2
77538;PMS7003;67783;51.656;16.106;2023-06-14T00:03:26;5;1;1
77538;PMS7003;67783;51.656;16.106;2023-06-14T00:06:30;3;1;1
77538;PMS7003;67783;51.656;16.106;2023-06-14T00:09:34;2;2;1
77538;PMS7003;67783;51.656;16.106;2023-06-14T00:12:39;3;2;2
77538;PMS7003;67783;51.656;16.106;2023-06-14T00:15:42;2;2;1
77538;PMS7003;67783;51.656;16.106;2023-06-14T00:18:43;1;1;1
77538;PMS7003;67783;51.656;16.106;2023-06-14T00:21:45;2;2;1
77538;PMS7003;67783;51.656;16.106;2023-06-14T00:24:48;1;1;1
77538;PMS7003;67783;51.656;16.106;2023-06-14T00:28:00;3;2;2
77538;PMS7003;67783;51.656;16.106;2023-06-14T00:31:02;1;1;1
77538;PMS7003;67783;51.656;16.106;2023-06-14T00:34:04;2;2;1
77538;PMS7003;67783;51.656;16.106;2023-06-14T00:37:05;4;2;2
77538;PMS7003;67783;51.656;16.106;2023-06-14T00:40:07;2;2;2
77538;PMS7003;67783;51.656;16.106;2023-06-14T00:43:09;2;2;2
77538;PMS7003;67783;51.656;16.106;2023-06-14T00:46:10;1;1;0
77538;PMS7003;67783;51.656;16.106;2023-06-14T00:49:15;3;1;1
77538;PMS7003;67783;51.656;16.106;2023-06-14T00:52:19;3;2;2
77538;PMS7003;67783;51.656;16.106;2023-06-14T00:55:21;2;2;1
77538;PMS7003;67783;51.656;16.106;2023-06-14T00:58:23;2;2;1
77538;PMS7003;67783;51.656;16.106;2023-06-14T01:01:24;3;1;1
77538;PMS7003;67783;51.656;16.106;2023-06-14T01:04:36;2;2;1
77538;PMS7003;67783;51.656;16.106;2023-06-14T01:14:06;4;3;2
77538;PMS7003;67783;51.656;16.106;2023-06-14T01:17:13;2;2;2
77538;PMS7003;67783;51.656;16.106;2023-06-14T01:20:21;5;3;2
77538;PMS7003;67783;51.656;16.106;2023-06-14T01:23:29;2;2;2
77538;PMS7003;67783;51.656;16.106;2023-06-14T01:26:33;2;2;2
77538;PMS7003;67783;51.656;16.106;2023-06-14T01:29:34;5;3;2
77538;PMS7003;67783;51.656;16.106;2023-06-14T01:32:37;2;2;1
77538;PMS7003;67783;51.656;16.106;2023-06-14T01:35:41;3;2;2
77538;PMS7003;67783;51.656;16.106;2023-06-14T01:38:50;2;2;1
77538;PMS7003;67783;51.656;16.106;2023-06-14T01:41:53;3;2;2
77538;PMS7003;67783;51.656;16.106;2023-06-14T01:44:54;4;3;2
77538;PMS7003;67783;51.656;16.106;2023-06-14T01:47:57;3;3;1
77538;PMS7003;67783;51.656;16.106;2023-06-14T01:51:00;2;2;2
77538;PMS7003;67783;51.656;16.106;2023-06-14T01:54:10;2;2;1
77538;PMS7003;67783;51.656;16.106;2023-06-14T01:57:12;3;3;2
77538;PMS7003;67783;51.656;16.106;2023-06-14T02:00:14;2;2;2
77538;PMS7003;67783;51.656;16.106;2023-06-14T02:03:18;3;2;2
77538;PMS7003;67783;51.656;16.106;2023-06-14T02:06:20;2;2;1
77538;PMS7003;67783;51.656;16.106;2023-06-14T02:09:31;3;3;2
77538;PMS7003;67783;51.656;16.106;2023-06-14T02:12:32;2;2;2
77538;PMS7003;67783;51.656;16.106;2023-06-14T02:15:34;2;2;1
77538;PMS7003;67783;51.656;16.106;2023-06-14T02:18:36;2;2;1
77538;PMS7003;67783;51.656;16.106;2023-06-14T02:21:37;2;2;1
77538;PMS7003;67783;51.656;16.106;2023-06-14T02:24:39;3;3;2
77538;PMS7003;67783;51.656;16.106;2023-06-14T02:27:40;3;3;2
77538;PMS7003;67783;51.656;16.106;2023-06-14T02:30:46;3;3;2
77538;PMS7003;67783;51.656;16.106;2023-06-14T02:33:47;3;3;2
77538;PMS7003;67783;51.656;16.106;2023-06-14T02:36:49;3;3;2
77538;PMS7003;67783;51.656;16.106;2023-06-14T02:39:51;2;2;2
77538;PMS7003;67783;51.656;16.106;2023-06-14T02:42:52;2;2;2
77538;PMS7003;67783;51.656;16.106;2023-06-14T02:45:54;2;2;2
77538;PMS7003;67783;51.656;16.106;2023-06-14T02:48:55;2;2;2
77538;PMS7003;67783;51.656;16.106;2023-06-14T02:52:00;4;4;3
77538;PMS7003;67783;51.656;16.106;2023-06-14T02:55:04;4;3;2
77538;PMS7003;67783;51.656;16.106;2023-06-14T02:58:07;2;2;2
77538;PMS7003;67783;51.656;16.106;2023-06-14T03:01:08;5;5;3
77538;PMS7003;67783;51.656;16.106;2023-06-14T03:04:14;2;2;2
77538;PMS7003;67783;51.656;16.106;2023-06-14T03:07:21;4;4;3
77538;PMS7003;67783;51.656;16.106;2023-06-14T03:10:26;4;4;2
77538;PMS7003;67783;51.656;16.106;2023-06-14T03:13:30;4;3;2
77538;PMS7003;67783;51.656;16.106;2023-06-14T03:16:34;2;2;2
77538;PMS7003;67783;51.656;16.106;2023-06-14T03:19:37;4;3;2
77538;PMS7003;67783;51.656;16.106;2023-06-14T03:22:42;3;3;3
77538;PMS7003;67783;51.656;16.106;2023-06-14T03:25:48;7;5;4
77538;PMS7003;67783;51.656;16.106;2023-06-14T03:28:50;3;3;2
77538;PMS7003;67783;51.656;16.106;2023-06-14T03:35:00;4;4;3
77538;PMS7003;67783;51.656;16.106;2023-06-14T03:38:05;4;3;2
77538;PMS7003;67783;51.656;16.106;2023-06-14T03:41:07;2;2;2
77538;PMS7003;67783;51.656;16.106;2023-06-14T03:44:08;4;4;1
77538;PMS7003;67783;51.656;16.106;2023-06-14T03:47:10;3;3;2
77538;PMS7003;67783;51.656;16.106;2023-06-14T03:50:11;3;3;3
77538;PMS7003;67783;51.656;16.106;2023-06-14T03:53:13;4;4;3
77538;PMS7003;67783;51.656;16.106;2023-06-14T03:56:15;0;0;0
77538;PMS7003;67783;51.656;16.106;2023-06-14T03:59:20;10;10;6
77538;PMS7003;67783;51.656;16.106;2023-06-14T04:02:22;4;4;4
77538;PMS7003;67783;51.656;16.106;2023-06-14T04:05:24;3;3;1
77538;PMS7003;67783;51.656;16.106;2023-06-14T04:08:27;3;3;3
77538;PMS7003;67783;51.656;16.106;2023-06-14T04:11:29;5;4;3
77538;PMS7003;67783;51.656;16.106;2023-06-14T04:14:40;5;3;1
77538;PMS7003;67783;51.656;16.106;2023-06-14T04:17:42;4;4;3
77538;PMS7003;67783;51.656;16.106;2023-06-14T04:20:44;7;6;5
77538;PMS7003;67783;51.656;16.106;2023-06-14T04:23:46;4;4;3
77538;PMS7003;67783;51.656;16.106;2023-06-14T04:26:48;4;4;3
77538;PMS7003;67783;51.656;16.106;2023-06-14T04:30:01;2;2;2
77538;PMS7003;67783;51.656;16.106;2023-06-14T04:33:04;4;4;3
77538;PMS7003;67783;51.656;16.106;2023-06-14T04:36:06;9;3;2
77538;PMS7003;67783;51.656;16.106;2023-06-14T04:39:08;5;3;2
77538;PMS7003;67783;51.656;16.106;2023-06-14T04:42:10;2;2;2
77538;PMS7003;67783;51.656;16.106;2023-06-14T04:45:22;6;4;3
77538;PMS7003;67783;51.656;16.106;2023-06-14T04:48:24;4;4;3
77538;PMS7003;67783;51.656;16.106;2023-06-14T04:51:25;3;3;2
77538;PMS7003;67783;51.656;16.106;2023-06-14T04:54:30;4;3;3
77538;PMS7003;67783;51.656;16.106;2023-06-14T04:57:35;6;6;3
77538;PMS7003;67783;51.656;16.106;2023-06-14T05:00:42;5;4;3
77538;PMS7003;67783;51.656;16.106;2023-06-14T05:03:44;5;5;4
77538;PMS7003;67783;51.656;16.106;2023-06-14T05:06:49;5;5;4
77538;PMS7003;67783;51.656;16.106;2023-06-14T05:09:51;6;6;4
77538;PMS7003;67783;51.656;16.106;2023-06-14T05:12:53;5;5;4
77538;PMS7003;67783;51.656;16.106;2023-06-14T05:16:03;7;5;4
77538;PMS7003;67783;51.656;16.106;2023-06-14T05:19:05;8;6;5
77538;PMS7003;67783;51.656;16.106;2023-06-14T05:22:07;8;6;4
77538;PMS7003;67783;51.656;16.106;2023-06-14T05:25:09;7;7;5
77538;PMS7003;67783;51.656;16.106;2023-06-14T05:28:10;8;5;3
77538;PMS7003;67783;51.656;16.106;2023-06-14T05:31:12;7;7;5
77538;PMS7003;67783;51.656;16.106;2023-06-14T05:34:14;10;8;5
77538;PMS7003;67783;51.656;16.106;2023-06-14T05:37:19;6;5;3
77538;PMS7003;67783;51.656;16.106;2023-06-14T05:40:20;5;5;4
77538;PMS7003;67783;51.656;16.106;2023-06-14T05:43:22;9;8;5
77538;PMS7003;67783;51.656;16.106;2023-06-14T05:46:24;7;6;4
77538;PMS7003;67783;51.656;16.106;2023-06-14T05:49:26;5;5;5
77538;PMS7003;67783;51.656;16.106;2023-06-14T05:52:28;8;8;5
77538;PMS7003;67783;51.656;16.106;2023-06-14T05:55:30;7;5;4
77538;PMS7003;67783;51.656;16.106;2023-06-14T05:58:35;9;6;5
77538;PMS7003;67783;51.656;16.106;2023-06-14T06:01:36;5;5;3
77538;PMS7003;67783;51.656;16.106;2023-06-14T06:04:40;4;4;4
77538;PMS7003;67783;51.656;16.106;2023-06-14T06:07:42;9;9;5
77538;PMS7003;67783;51.656;16.106;2023-06-14T06:10:47;4;4;3
77538;PMS7003;67783;51.656;16.106;2023-06-14T06:13:55;6;6;5
77538;PMS7003;67783;51.656;16.106;2023-06-14T06:16:57;6;5;3
77538;PMS7003;67783;51.656;16.106;2023-06-14T06:19:59;8;6;5
77538;PMS7003;67783;51.656;16.106;2023-06-14T06:23:01;8;7;4
77538;PMS7003;67783;51.656;16.106;2023-06-14T06:26:02;9;9;6
77538;PMS7003;67783;51.656;16.106;2023-06-14T06:29:04;9;8;5
77538;PMS7003;67783;51.656;16.106;2023-06-14T06:32:07;6;6;4
77538;PMS7003;67783;51.656;16.106;2023-06-14T06:35:11;10;5;4
77538;PMS7003;67783;51.656;16.106;2023-06-14T06:38:16;7;7;5
77538;PMS7003;67783;51.656;16.106;2023-06-14T06:41:19;6;6;4
77538;PMS7003;67783;51.656;16.106;2023-06-14T06:44:21;9;7;5
77538;PMS7003;67783;51.656;16.106;2023-06-14T06:47:23;6;5;4
77538;PMS7003;67783;51.656;16.106;2023-06-14T06:50:32;8;5;4
77538;PMS7003;67783;51.656;16.106;2023-06-14T06:53:34;8;8;6
77538;PMS7003;67783;51.656;16.106;2023-06-14T06:56:35;7;5;4
77538;PMS7003;67783;51.656;16.106;2023-06-14T06:59:37;6;6;4
77538;PMS7003;67783;51.656;16.106;2023-06-14T07:02:39;7;5;5
77538;PMS7003;67783;51.656;16.106;2023-06-14T07:05:41;13;11;6
77538;PMS7003;67783;51.656;16.106;2023-06-14T07:08:42;8;8;6
77538;PMS7003;67783;51.656;16.106;2023-06-14T07:11:47;7;7;5
77538;PMS7003;67783;51.656;16.106;2023-06-14T07:14:49;8;7;6
77538;PMS7003;67783;51.656;16.106;2023-06-14T07:17:50;9;8;6
77538;PMS7003;67783;51.656;16.106;2023-06-14T07:20:54;9;9;8
77538;PMS7003;67783;51.656;16.106;2023-06-14T07:23:57;12;9;6
77538;PMS7003;67783;51.656;16.106;2023-06-14T07:27:08;10;8;6
77538;PMS7003;67783;51.656;16.106;2023-06-14T07:30:10;8;8;6
77538;PMS7003;67783;51.656;16.106;2023-06-14T07:33:13;10;6;4
77538;PMS7003;67783;51.656;16.106;2023-06-14T07:36:15;8;8;5
77538;PMS7003;67783;51.656;16.106;2023-06-14T07:39:18;7;7;5
77538;PMS7003;67783;51.656;16.106;2023-06-14T07:42:28;11;7;6
77538;PMS7003;67783;51.656;16.106;2023-06-14T07:45:30;9;8;6
77538;PMS7003;67783;51.656;16.106;2023-06-14T07:48:32;9;8;5
77538;PMS7003;67783;51.656;16.106;2023-06-14T07:51:33;7;7;5
77538;PMS7003;67783;51.656;16.106;2023-06-14T07:54:35;10;8;6
77538;PMS7003;67783;51.656;16.106;2023-06-14T07:57:38;13;8;6
77538;PMS7003;67783;51.656;16.106;2023-06-14T08:00:39;8;8;4
77538;PMS7003;67783;51.656;16.106;2023-06-14T08:03:44;6;6;4
77538;PMS7003;67783;51.656;16.106;2023-06-14T08:06:46;8;7;5
77538;PMS7003;67783;51.656;16.106;2023-06-14T08:09:48;7;7;5
77538;PMS7003;67783;51.656;16.106;2023-06-14T08:12:50;7;7;6
77538;PMS7003;67783;51.656;16.106;2023-06-14T08:15:51;7;7;5
77538;PMS7003;67783;51.656;16.106;2023-06-14T08:18:53;10;10;6
77538;PMS7003;67783;51.656;16.106;2023-06-14T08:21:56;6;6;4
77538;PMS7003;67783;51.656;16.106;2023-06-14T08:25:01;9;6;5
77538;PMS7003;67783;51.656;16.106;2023-06-14T08:28:02;6;5;3
77538;PMS7003;67783;51.656;16.106;2023-06-14T08:31:04;10;7;5
77538;PMS7003;67783;51.656;16.106;2023-06-14T08:34:06;5;0;0
77538;PMS7003;67783;51.656;16.106;2023-06-14T08:37:08;7;7;5
77538;PMS7003;67783;51.656;16.106;2023-06-14T08:40:17;8;8;5
77538;PMS7003;67783;51.656;16.106;2023-06-14T08:43:23;9;8;6
77538;PMS7003;67783;51.656;16.106;2023-06-14T08:46:28;10;8;6
77538;PMS7003;67783;51.656;16.106;2023-06-14T08:49:35;8;5;4
77538;PMS7003;67783;51.656;16.106;2023-06-14T08:52:40;8;8;5
77538;PMS7003;67783;51.656;16.106;2023-06-14T08:55:55;8;7;5
77538;PMS7003;67783;51.656;16.106;2023-06-14T08:58:57;7;6;4
77538;PMS7003;67783;51.656;16.106;2023-06-14T09:02:06;6;6;5
77538;PMS7003;67783;51.656;16.106;2023-06-14T09:05:07;7;6;4
77538;PMS7003;67783;51.656;16.106;2023-06-14T09:08:09;9;9;7
77538;PMS7003;67783;51.656;16.106;2023-06-14T09:11:16;5;5;4
77538;PMS7003;67783;51.656;16.106;2023-06-14T09:14:23;8;6;5
77538;PMS7003;67783;51.656;16.106;2023-06-14T09:17:26;10;8;5
77538;PMS7003;67783;51.656;16.106;2023-06-14T09:20:28;5;5;4
77538;PMS7003;67783;51.656;16.106;2023-06-14T09:23:33;5;4;3
77538;PMS7003;67783;51.656;16.106;2023-06-14T09:26:40;4;4;4
77538;PMS7003;67783;51.656;16.106;2023-06-14T09:29:42;5;5;4
77538;PMS7003;67783;51.656;16.106;2023-06-14T09:32:43;7;6;5
77538;PMS7003;67783;51.656;16.106;2023-06-14T09:35:46;8;6;5
77538;PMS7003;67783;51.656;16.106;2023-06-14T09:42:01;6;5;4
77538;PMS7003;67783;51.656;16.106;2023-06-14T09:45:12;4;4;4
77538;PMS7003;67783;51.656;16.106;2023-06-14T09:48:19;3;3;3
77538;PMS7003;67783;51.656;16.106;2023-06-14T09:51:24;3;3;2
77538;PMS7003;67783;51.656;16.106;2023-06-14T09:54:27;4;4;3
77538;PMS7003;67783;51.656;16.106;2023-06-14T09:57:31;5;5;4
77538;PMS7003;67783;51.656;16.106;2023-06-14T10:00:36;4;3;3
77538;PMS7003;67783;51.656;16.106;2023-06-14T10:03:39;2;2;2
77538;PMS7003;67783;51.656;16.106;2023-06-14T10:06:45;4;3;3
77538;PMS7003;67783;51.656;16.106;2023-06-14T10:09:47;3;3;2
77538;PMS7003;67783;51.656;16.106;2023-06-14T10:12:50;4;4;3
77538;PMS7003;67783;51.656;16.106;2023-06-14T10:19:11;3;3;2
77538;PMS7003;67783;51.656;16.106;2023-06-14T10:22:22;3;3;2
77538;PMS7003;67783;51.656;16.106;2023-06-14T10:25:30;2;2;1
77538;PMS7003;67783;51.656;16.106;2023-06-14T10:28:33;3;3;2
77538;PMS7003;67783;51.656;16.106;2023-06-14T10:31:42;3;3;2
77538;PMS7003;67783;51.656;16.106;2023-06-14T10:38:06;5;3;3
77538;PMS7003;67783;51.656;16.106;2023-06-14T10:41:09;4;4;3
77538;PMS7003;67783;51.656;16.106;2023-06-14T10:47:30;2;2;1
77538;PMS7003;67783;51.656;16.106;2023-06-14T10:50:41;4;4;3
77538;PMS7003;67783;51.656;16.106;2023-06-14T10:53:48;3;3;2
77538;PMS7003;67783;51.656;16.106;2023-06-14T10:56:52;3;3;1
77538;PMS7003;67783;51.656;16.106;2023-06-14T10:59:58;2;2;1
77538;PMS7003;67783;51.656;16.106;2023-06-14T11:06:30;2;2;1
77538;PMS7003;67783;51.656;16.106;2023-06-14T11:10:01;2;2;2
77538;PMS7003;67783;51.656;16.106;2023-06-14T11:12:56;3;3;2
77538;PMS7003;67783;51.656;16.106;2023-06-14T11:15:58;3;3;2
77538;PMS7003;67783;51.656;16.106;2023-06-14T11:19:03;2;2;1
77538;PMS7003;67783;51.656;16.106;2023-06-14T11:22:05;4;3;3
77538;PMS7003;67783;51.656;16.106;2023-06-14T11:25:08;2;2;2
77538;PMS7003;67783;51.656;16.106;2023-06-14T11:28:11;2;2;1
77538;PMS7003;67783;51.656;16.106;2023-06-14T11:31:12;2;2;1
77538;PMS7003;67783;51.656;16.106;2023-06-14T11:34:24;3;3;2
77538;PMS7003;67783;51.656;16.106;2023-06-14T11:37:26;2;2;2
77538;PMS7003;67783;51.656;16.106;2023-06-14T11:40:31;2;2;2
77538;PMS7003;67783;51.656;16.106;2023-06-14T11:43:32;1;1;1
77538;PMS7003;67783;51.656;16.106;2023-06-14T11:46:35;2;2;2
77538;PMS7003;67783;51.656;16.106;2023-06-14T11:49:44;2;2;2
77538;PMS7003;67783;51.656;16.106;2023-06-14T11:52:51;3;3;3
77538;PMS7003;67783;51.656;16.106;2023-06-14T11:55:56;2;2;2
77538;PMS7003;67783;51.656;16.106;2023-06-14T11:58:59;3;3;3
77538;PMS7003;67783;51.656;16.106;2023-06-14T12:02:02;4;4;3
77538;PMS7003;67783;51.656;16.106;2023-06-14T12:05:06;3;3;2
77538;PMS7003;67783;51.656;16.106;2023-06-14T12:08:10;5;3;3
77538;PMS7003;67783;51.656;16.106;2023-06-14T12:11:18;3;2;1
77538;PMS7003;67783;51.656;16.106;2023-06-14T12:14:19;3;2;2
77538;PMS7003;67783;51.656;16.106;2023-06-14T12:17:21;7;2;2
77538;PMS7003;67783;51.656;16.106;2023-06-14T12:20:29;2;2;2
77538;PMS7003;67783;51.656;16.106;2023-06-14T12:26:41;2;2;2
77538;PMS7003;67783;51.656;16.106;2023-06-14T12:33:02;2;2;2
77538;PMS7003;67783;51.656;16.106;2023-06-14T12:36:06;2;2;2
77538;PMS7003;67783;51.656;16.106;2023-06-14T12:39:20;4;3;2
77538;PMS7003;67783;51.656;16.106;2023-06-14T12:42:23;3;3;2
77538;PMS7003;67783;51.656;16.106;2023-06-14T12:45:24;5;4;2
77538;PMS7003;67783;51.656;16.106;2023-06-14T12:48:26;1;1;1
77538;PMS7003;67783;51.656;16.106;2023-06-14T12:51:30;2;2;2
77538;PMS7003;67783;51.656;16.106;2023-06-14T12:54:40;6;4;3
77538;PMS7003;67783;51.656;16.106;2023-06-14T12:57:41;4;4;3
77538;PMS7003;67783;51.656;16.106;2023-06-14T13:00:43;3;3;3
77538;PMS7003;67783;51.656;16.106;2023-06-14T13:03:48;3;3;3
77538;PMS7003;67783;51.656;16.106;2023-06-14T13:06:54;5;5;3
77538;PMS7003;67783;51.656;16.106;2023-06-14T13:10:00;3;3;2
77538;PMS7003;67783;51.656;16.106;2023-06-14T13:13:02;5;3;3
77538;PMS7003;67783;51.656;16.106;2023-06-14T13:16:04;3;3;2
77538;PMS7003;67783;51.656;16.106;2023-06-14T13:19:06;4;3;3
77538;PMS7003;67783;51.656;16.106;2023-06-14T13:22:07;4;4;2
77538;PMS7003;67783;51.656;16.106;2023-06-14T13:25:09;5;5;3
77538;PMS7003;67783;51.656;16.106;2023-06-14T13:28:11;4;3;2
77538;PMS7003;67783;51.656;16.106;2023-06-14T13:31:16;4;4;3
77538;PMS7003;67783;51.656;16.106;2023-06-14T13:34:17;4;3;3
77538;PMS7003;67783;51.656;16.106;2023-06-14T13:37:19;4;2;2
77538;PMS7003;67783;51.656;16.106;2023-06-14T13:40:21;3;2;1
77538;PMS7003;67783;51.656;16.106;2023-06-14T13:43:22;4;4;3
77538;PMS7003;67783;51.656;16.106;2023-06-14T13:46:24;3;3;2
77538;PMS7003;67783;51.656;16.106;2023-06-14T13:49:26;3;3;2
77538;PMS7003;67783;51.656;16.106;2023-06-14T13:52:31;2;2;2
77538;PMS7003;67783;51.656;16.106;2023-06-14T13:55:33;3;3;2
77538;PMS7003;67783;51.656;16.106;2023-06-14T13:58:34;3;3;2
77538;PMS7003;67783;51.656;16.106;2023-06-14T14:01:36;5;4;3
77538;PMS7003;67783;51.656;16.106;2023-06-14T14:04:38;2;2;2
77538;PMS7003;67783;51.656;16.106;2023-06-14T14:07:40;4;4;3
77538;PMS7003;67783;51.656;16.106;2023-06-14T14:10:46;3;3;3
77538;PMS7003;67783;51.656;16.106;2023-06-14T14:13:51;3;3;3
77538;PMS7003;67783;51.656;16.106;2023-06-14T14:16:53;3;3;2
77538;PMS7003;67783;51.656;16.106;2023-06-14T14:19:56;3;3;3
77538;PMS7003;67783;51.656;16.106;2023-06-14T14:22:58;2;2;2
77538;PMS7003;67783;51.656;16.106;2023-06-14T14:26:00;3;3;2
77538;PMS7003;67783;51.656;16.106;2023-06-14T14:29:12;3;3;2
77538;PMS7003;67783;51.656;16.106;2023-06-14T14:32:13;6;4;3
77538;PMS7003;67783;51.656;16.106;2023-06-14T14:35:19;2;2;1
77538;PMS7003;67783;51.656;16.106;2023-06-14T14:38:20;4;4;4
77538;PMS7003;67783;51.656;16.106;2023-06-14T14:43:05;3;3;3
77538;PMS7003;67783;51.656;16.106;2023-06-14T14:46:07;3;3;3
77538;PMS7003;67783;51.656;16.106;2023-06-14T14:49:09;5;3;2
77538;PMS7003;67783;51.656;16.106;2023-06-14T14:52:14;4;4;3
77538;PMS7003;67783;51.656;16.106;2023-06-14T14:55:25;6;3;2
77538;PMS7003;67783;51.656;16.106;2023-06-14T14:58:27;2;2;2
77538;PMS7003;67783;51.656;16.106;2023-06-14T15:01:29;4;4;3
77538;PMS7003;67783;51.656;16.106;2023-06-14T15:04:31;4;4;3
77538;PMS7003;67783;51.656;16.106;2023-06-14T15:07:33;2;2;2
77538;PMS7003;67783;51.656;16.106;2023-06-14T15:10:46;4;3;2
77538;PMS7003;67783;51.656;16.106;2023-06-14T15:13:49;3;3;2
77538;PMS7003;67783;51.656;16.106;2023-06-14T15:16:54;4;3;3
77538;PMS7003;67783;51.656;16.106;2023-06-14T15:19:55;3;3;3
77538;PMS7003;67783;51.656;16.106;2023-06-14T15:23:01;3;3;2
77538;PMS7003;67783;51.656;16.106;2023-06-14T15:26:06;4;4;2
77538;PMS7003;67783;51.656;16.106;2023-06-14T15:29:08;4;3;2
77538;PMS7003;67783;51.656;16.106;2023-06-14T15:32:09;2;2;2
77538;PMS7003;67783;51.656;16.106;2023-06-14T15:35:12;3;3;2
77538;PMS7003;67783;51.656;16.106;2023-06-14T15:38:13;2;2;2
77538;PMS7003;67783;51.656;16.106;2023-06-14T15:41:15;2;2;2
77538;PMS7003;67783;51.656;16.106;2023-06-14T15:44:17;3;3;2
77538;PMS7003;67783;51.656;16.106;2023-06-14T15:47:22;2;2;2
77538;PMS7003;67783;51.656;16.106;2023-06-14T15:50:24;4;4;2
77538;PMS7003;67783;51.656;16.106;2023-06-14T15:53:25;2;2;2
77538;PMS7003;67783;51.656;16.106;2023-06-14T15:56:27;3;3;2
77538;PMS7003;67783;51.656;16.106;2023-06-14T15:59:29;6;2;2
77538;PMS7003;67783;51.656;16.106;2023-06-14T16:02:42;4;3;2
77538;PMS7003;67783;51.656;16.106;2023-06-14T16:05:44;4;4;4
77538;PMS7003;67783;51.656;16.106;2023-06-14T16:08:46;4;3;3
77538;PMS7003;67783;51.656;16.106;2023-06-14T16:11:47;3;3;3
77538;PMS7003;67783;51.656;16.106;2023-06-14T16:14:49;3;3;3
77538;PMS7003;67783;51.656;16.106;2023-06-14T16:17:51;3;3;3
77538;PMS7003;67783;51.656;16.106;2023-06-14T16:20:55;1;1;1
77538;PMS7003;67783;51.656;16.106;2023-06-14T16:24:00;3;2;2
77538;PMS7003;67783;51.656;16.106;2023-06-14T16:27:02;3;2;2
77538;PMS7003;67783;51.656;16.106;2023-06-14T16:30:09;5;3;2
77538;PMS7003;67783;51.656;16.106;2023-06-14T16:33:12;3;3;2
77538;PMS7003;67783;51.656;16.106;2023-06-14T16:36:13;3;3;2
77538;PMS7003;67783;51.656;16.106;2023-06-14T16:39:21;2;2;2
77538;PMS7003;67783;51.656;16.106;2023-06-14T16:42:22;3;3;2
77538;PMS7003;67783;51.656;16.106;2023-06-14T16:45:24;2;2;2
77538;PMS7003;67783;51.656;16.106;2023-06-14T16:48:26;2;2;2
77538;PMS7003;67783;51.656;16.106;2023-06-14T16:51:27;2;2;1
77538;PMS7003;67783;51.656;16.106;2023-06-14T16:54:29;3;3;3
77538;PMS7003;67783;51.656;16.106;2023-06-14T16:57:31;2;2;1
77538;PMS7003;67783;51.656;16.106;2023-06-14T17:00:36;2;2;1
77538;PMS7003;67783;51.656;16.106;2023-06-14T17:03:37;4;2;1
77538;PMS7003;67783;51.656;16.106;2023-06-14T17:06:39;1;1;1
77538;PMS7003;67783;51.656;16.106;2023-06-14T17:09:41;3;3;2
77538;PMS7003;67783;51.656;16.106;2023-06-14T17:12:43;4;4;2
77538;PMS7003;67783;51.656;16.106;2023-06-14T17:15:45;2;2;2
77538;PMS7003;67783;51.656;16.106;2023-06-14T17:18:46;2;2;2
77538;PMS7003;67783;51.656;16.106;2023-06-14T17:21:51;2;2;2
77538;PMS7003;67783;51.656;16.106;2023-06-14T17:24:55;2;2;2
77538;PMS7003;67783;51.656;16.106;2023-06-14T17:27:57;3;2;2
77538;PMS7003;67783;51.656;16.106;2023-06-14T17:31:03;2;2;2
77538;PMS7003;67783;51.656;16.106;2023-06-14T17:34:05;3;3;2
77538;PMS7003;67783;51.656;16.106;2023-06-14T17:37:12;3;3;2
77538;PMS7003;67783;51.656;16.106;2023-06-14T17:40:13;3;3;3
77538;PMS7003;67783;51.656;16.106;2023-06-14T17:43:15;3;3;2
77538;PMS7003;67783;51.656;16.106;2023-06-14T17:46:17;4;3;2
77538;PMS7003;67783;51.656;16.106;2023-06-14T17:49:18;2;2;2
77538;PMS7003;67783;51.656;16.106;2023-06-14T17:52:32;4;4;3
77538;PMS7003;67783;51.656;16.106;2023-06-14T17:55:34;4;4;3
77538;PMS7003;67783;51.656;16.106;2023-06-14T17:58:35;3;3;2
77538;PMS7003;67783;51.656;16.106;2023-06-14T18:01:37;5;2;2
77538;PMS7003;67783;51.656;16.106;2023-06-14T18:04:39;3;3;2
77538;PMS7003;67783;51.656;16.106;2023-06-14T18:07:41;2;2;1
77538;PMS7003;67783;51.656;16.106;2023-06-14T18:10:43;2;2;2
77538;PMS7003;67783;51.656;16.106;2023-06-14T18:13:48;2;2;2
77538;PMS7003;67783;51.656;16.106;2023-06-14T18:16:50;2;2;2
77538;PMS7003;67783;51.656;16.106;2023-06-14T18:19:52;3;3;3
77538;PMS7003;67783;51.656;16.106;2023-06-14T18:22:53;3;2;2
77538;PMS7003;67783;51.656;16.106;2023-06-14T18:25:55;6;6;4
77538;PMS7003;67783;51.656;16.106;2023-06-14T18:28:57;8;7;5
77538;PMS7003;67783;51.656;16.106;2023-06-14T18:32:01;7;7;4
77538;PMS7003;67783;51.656;16.106;2023-06-14T18:35:06;10;7;5
77538;PMS7003;67783;51.656;16.106;2023-06-14T18:38:11;8;7;4
77538;PMS7003;67783;51.656;16.106;2023-06-14T18:41:13;4;4;4
77538;PMS7003;67783;51.656;16.106;2023-06-14T18:44:16;8;7;5
77538;PMS7003;67783;51.656;16.106;2023-06-14T18:47:17;9;9;5
77538;PMS7003;67783;51.656;16.106;2023-06-14T18:50:26;8;7;5
77538;PMS7003;67783;51.656;16.106;2023-06-14T18:53:28;8;7;4
77538;PMS7003;67783;51.656;16.106;2023-06-14T18:56:31;16;12;7
77538;PMS7003;67783;51.656;16.106;2023-06-14T18:59:33;19;12;9
77538;PMS7003;67783;51.656;16.106;2023-06-14T19:02:36;9;9;8
77538;PMS7003;67783;51.656;16.106;2023-06-14T19:05:47;10;10;8
77538;PMS7003;67783;51.656;16.106;2023-06-14T19:08:49;11;9;7
77538;PMS7003;67783;51.656;16.106;2023-06-14T19:11:52;16;14;9
77538;PMS7003;67783;51.656;16.106;2023-06-14T19:14:54;16;11;8
77538;PMS7003;67783;51.656;16.106;2023-06-14T19:18:00;12;11;8
77538;PMS7003;67783;51.656;16.106;2023-06-14T19:21:07;9;9;6
77538;PMS7003;67783;51.656;16.106;2023-06-14T19:24:10;13;11;8
77538;PMS7003;67783;51.656;16.106;2023-06-14T19:27:20;8;8;5
77538;PMS7003;67783;51.656;16.106;2023-06-14T19:30:22;13;11;7
77538;PMS7003;67783;51.656;16.106;2023-06-14T19:33:24;11;8;6
77538;PMS7003;67783;51.656;16.106;2023-06-14T19:36:28;12;11;8
77538;PMS7003;67783;51.656;16.106;2023-06-14T19:39:30;6;6;5
77538;PMS7003;67783;51.656;16.106;2023-06-14T19:42:32;6;6;5
77538;PMS7003;67783;51.656;16.106;2023-06-14T19:45:34;7;7;5
77538;PMS7003;67783;51.656;16.106;2023-06-14T19:48:36;6;6;5
77538;PMS7003;67783;51.656;16.106;2023-06-14T19:51:49;8;7;5
77538;PMS7003;67783;51.656;16.106;2023-06-14T19:54:51;3;3;3
77538;PMS7003;67783;51.656;16.106;2023-06-14T19:57:53;7;7;5
77538;PMS7003;67783;51.656;16.106;2023-06-14T20:00:55;8;8;6
77538;PMS7003;67783;51.656;16.106;2023-06-14T20:03:57;6;4;4
77538;PMS7003;67783;51.656;16.106;2023-06-14T20:07:09;6;5;4
77538;PMS7003;67783;51.656;16.106;2023-06-14T20:10:11;4;4;4
77538;PMS7003;67783;51.656;16.106;2023-06-14T20:13:14;3;3;2
77538;PMS7003;67783;51.656;16.106;2023-06-14T20:16:16;4;4;4
77538;PMS7003;67783;51.656;16.106;2023-06-14T20:19:18;4;4;3
77538;PMS7003;67783;51.656;16.106;2023-06-14T20:22:30;6;4;3
77538;PMS7003;67783;51.656;16.106;2023-06-14T20:25:40;6;4;4
77538;PMS7003;67783;51.656;16.106;2023-06-14T20:28:41;5;4;3
77538;PMS7003;67783;51.656;16.106;2023-06-14T20:31:43;6;5;3
77538;PMS7003;67783;51.656;16.106;2023-06-14T20:34:45;4;4;3
77538;PMS7003;67783;51.656;16.106;2023-06-14T20:37:50;6;5;4
77538;PMS7003;67783;51.656;16.106;2023-06-14T20:40:52;4;3;3
77538;PMS7003;67783;51.656;16.106;2023-06-14T20:43:57;4;3;3
77538;PMS7003;67783;51.656;16.106;2023-06-14T20:47:02;4;4;3
77538;PMS7003;67783;51.656;16.106;2023-06-14T20:50:06;4;3;3